Time;durP1;ratioP1;P1;durP2;ratioP2;P2;SDS_P1;SDS_P2;PMS_P1;PMS_P2;Temp;Humidity;BMP_temperature;BMP_pressure;BME280_temperature;BME280_humidity;BME280_pressure;Samples;Min_cycle;Max_cycle;Signal;HPM_P1;HPM_P2
2022/01/20 00:01:37;;;;;;;15.05;5.60;;;0.30;99.90;;;;;;5091670;28;20032;-61
2022/01/20 00:04:13;;;;;;;14.13;5.35;;;0.30;99.90;;;;;;5091596;28;20119;-62
2022/01/20 00:23:16;;;;;;;11.15;6.28;;;0.40;99.90;;;;;;5091405;28;20052;-62
2022/01/20 00:26:01;;;;;;;15.63;7.10;;;0.40;99.90;;;;;;5090949;28;20074;-62
2022/01/20 00:28:40;;;;;;;19.08;7.45;;;0.40;99.90;;;;;;5091415;28;20040;-62
2022/01/20 00:31:32;;;;;;;19.58;8.05;;;0.40;99.90;;;;;;5107275;28;20044;-62
2022/01/20 00:34:15;;;;;;;16.30;8.20;;;0.30;99.90;;;;;;5073226;28;20048;-61
2022/01/20 00:39:29;;;;;;;17.42;8.25;;;0.30;99.90;;;;;;5091299;28;20124;-64
2022/01/20 00:41:57;;;;;;;17.35;7.75;;;0.30;99.90;;;;;;5073260;28;20109;-63
2022/01/20 00:44:24;;;;;;;19.30;9.07;;;0.30;99.90;;;;;;5106813;28;20045;-62
2022/01/20 00:46:52;;;;;;;18.95;8.55;;;0.30;99.90;;;;;;5072627;28;20048;-61
2022/01/20 00:49:19;;;;;;;19.33;8.88;;;0.40;99.90;;;;;;5106985;28;20119;-62
2022/01/20 00:51:46;;;;;;;16.25;8.25;;;0.40;99.90;;;;;;5092281;28;20040;-62
2022/01/20 00:54:18;;;;;;;20.42;9.13;;;0.40;99.90;;;;;;5094886;28;20172;-63
2022/01/20 00:56:45;;;;;;;22.08;8.68;;;0.40;99.90;;;;;;5094613;28;20060;-62
2022/01/20 00:59:13;;;;;;;18.35;8.65;;;0.40;99.90;;;;;;5076622;28;20059;-61
2022/01/20 01:01:40;;;;;;;;;;;0.40;99.90;;;;;;5111042;28;20101;-61
2022/01/20 01:04:07;;;;;;;18.70;8.00;;;0.50;99.90;;;;;;5110281;28;19926;-61
2022/01/20 01:06:45;;;;;;;22.20;8.70;;;0.50;99.90;;;;;;5094198;28;20081;-62
2022/01/20 01:09:12;;;;;;;21.67;9.07;;;0.50;99.90;;;;;;5094675;28;20075;-61
2022/01/20 01:11:42;;;;;;;22.08;10.07;;;0.60;99.90;;;;;;5076583;28;20036;-61
2022/01/20 01:14:09;;;;;;;25.17;10.48;;;0.60;99.90;;;;;;5094746;28;20047;-62
2022/01/20 01:20:07;;;;;;;19.77;9.38;;;0.60;99.90;;;;;;5094101;28;20051;-61
2022/01/20 01:24:47;;;;;;;22.15;9.88;;;0.70;99.90;;;;;;5076115;28;20134;-62
2022/01/20 01:27:14;;;;;;;27.67;9.48;;;0.70;99.90;;;;;;5075655;28;20044;-62
2022/01/20 01:32:34;;;;;;;18.00;8.85;;;0.80;99.90;;;;;;5094432;28;20518;-61
2022/01/20 01:35:06;;;;;;;19.25;9.05;;;0.70;99.90;;;;;;5094129;28;20042;-61
2022/01/20 01:40:04;;;;;;;21.77;8.82;;;0.60;99.90;;;;;;5109779;28;20454;-61
2022/01/20 01:42:44;;;;;;;19.67;8.63;;;0.60;99.90;;;;;;5076136;28;20048;-62
2022/01/20 01:45:34;;;;;;;17.40;8.88;;;0.60;99.90;;;;;;5075420;28;20044;-62
2022/01/20 01:48:06;;;;;;;19.10;8.40;;;0.50;99.90;;;;;;5075755;28;20043;-61
2022/01/20 01:50:35;;;;;;;15.93;7.18;;;0.60;99.90;;;;;;5075853;28;20040;-62
2022/01/20 01:53:05;;;;;;;18.95;8.13;;;0.60;99.90;;;;;;5075650;28;20427;-62
2022/01/20 01:55:33;;;;;;;14.63;7.53;;;0.60;99.90;;;;;;5075106;28;20105;-61
2022/01/20 01:58:01;;;;;;;18.30;7.40;;;0.60;99.90;;;;;;5075639;28;20427;-61
2022/01/20 02:00:30;;;;;;;17.45;7.85;;;0.60;99.90;;;;;;5093694;28;20446;-61
2022/01/20 02:03:02;;;;;;;22.83;8.75;;;0.70;99.90;;;;;;5075173;28;20048;-61
2022/01/20 02:19:19;;;;;;;16.42;6.65;;;0.90;99.90;;;;;;5075342;28;20052;-61
2022/01/20 02:22:02;;;;;;;20.05;10.10;;;1.00;99.90;;;;;;5093297;28;20036;-61
2022/01/20 02:24:39;;;;;;;20.23;10.50;;;1.20;99.90;;;;;;5075131;28;20059;-61
2022/01/20 02:27:06;;;;;;;21.55;9.25;;;1.40;99.90;;;;;;5074573;28;20047;-61
2022/01/20 02:29:38;;;;;;;19.60;9.73;;;1.50;99.90;;;;;;5074944;28;20068;-61
2022/01/20 02:32:06;;;;;;;16.83;8.73;;;1.50;99.90;;;;;;5075178;28;20126;-61
2022/01/20 02:34:33;;;;;;;21.25;10.32;;;1.50;99.90;;;;;;5074683;28;20521;-61
2022/01/20 02:37:06;;;;;;;18.70;9.23;;;1.50;99.90;;;;;;5074427;28;20503;-62
2022/01/20 02:44:54;;;;;;;18.92;9.30;;;1.40;99.90;;;;;;5074642;28;20044;-62
2022/01/20 02:47:26;;;;;;;21.25;9.07;;;1.30;99.90;;;;;;5074217;28;20048;-62
2022/01/20 02:49:53;;;;;;;18.17;8.55;;;1.30;99.90;;;;;;5108560;28;20040;-61
2022/01/20 02:52:23;;;;;;;15.75;8.88;;;1.20;99.90;;;;;;5074754;28;20043;-62
2022/01/20 02:54:57;;;;;;;18.58;8.77;;;1.10;99.90;;;;;;5107543;22;20040;-63
2022/01/20 02:57:24;;;;;;;20.95;8.63;;;1.10;99.90;;;;;;5091512;28;20052;-63
2022/01/20 02:59:52;;;;;;;19.13;8.50;;;0.90;99.90;;;;;;5074014;28;20542;-60
2022/01/20 03:02:19;;;;;;;20.52;8.90;;;0.80;99.90;;;;;;5092839;28;20371;-63
2022/01/20 03:04:47;;;;;;;19.88;8.90;;;0.70;99.90;;;;;;5089945;28;20083;-60
2022/01/20 03:07:24;;;;;;;18.40;9.02;;;0.70;99.90;;;;;;5053811;28;20472;-63
2022/01/20 03:09:51;;;;;;;20.10;9.27;;;0.70;99.90;;;;;;5072163;28;20090;-63
2022/01/20 03:12:18;;;;;;;19.05;9.23;;;0.70;99.90;;;;;;5054149;28;20045;-63
2022/01/20 03:14:45;;;;;;;18.33;9.30;;;0.70;99.90;;;;;;5053364;28;20047;-63
2022/01/20 03:17:14;;;;;;;18.58;9.73;;;0.80;99.90;;;;;;5053686;28;20048;-64
2022/01/20 03:19:41;;;;;;;20.40;10.02;;;0.90;99.90;;;;;;5053934;28;20127;-61
2022/01/20 03:22:09;;;;;;;22.38;10.27;;;0.90;99.90;;;;;;5053988;28;20076;-63
2022/01/20 03:24:36;;;;;;;12.57;6.88;;;1.00;99.90;;;;;;5053850;28;20049;-63
2022/01/20 03:27:03;;;;;;;;;;;1.10;99.90;;;;;;5054012;28;20049;-63
2022/01/20 03:29:31;;;;;;;15.50;7.55;;;1.10;99.90;;;;;;5053906;28;20304;-63
2022/01/20 03:31:58;;;;;;;17.95;8.95;;;1.20;99.90;;;;;;5053893;28;20135;-63
2022/01/20 03:34:25;;;;;;;18.40;9.20;;;1.20;99.90;;;;;;5053632;28;20114;-63
2022/01/20 03:37:00;;;;;;;19.08;8.80;;;1.30;99.90;;;;;;5053385;28;20041;-63
2022/01/20 03:39:39;;;;;;;20.02;9.57;;;1.30;99.90;;;;;;5053752;28;20523;-63
2022/01/20 03:42:06;;;;;;;21.00;9.90;;;1.30;99.90;;;;;;5053855;28;20508;-63
2022/01/20 03:44:33;;;;;;;15.95;8.52;;;1.20;99.90;;;;;;5053573;28;20052;-63
2022/01/20 03:47:03;;;;;;;21.13;9.65;;;1.30;99.90;;;;;;5053099;28;20048;-63
2022/01/20 03:52:22;;;;;;;19.25;9.43;;;1.20;99.90;;;;;;5048308;28;20068;-63
2022/01/20 03:54:49;;;;;;;21.65;9.00;;;1.10;99.90;;;;;;5071421;28;20074;-63
2022/01/20 03:57:17;;;;;;;20.33;9.50;;;1.10;99.90;;;;;;5071123;28;20103;-63
2022/01/20 04:00:00;;;;;;;18.30;9.25;;;1.10;99.90;;;;;;5071712;28;20053;-63
2022/01/20 04:02:51;;;;;;;18.17;8.82;;;1.10;99.90;;;;;;5053569;28;20262;-63
2022/01/20 04:05:56;;;;;;;26.15;9.60;;;1.10;99.90;;;;;;5052673;28;20059;-63
2022/01/20 04:08:33;;;;;;;17.55;8.75;;;1.10;99.90;;;;;;5053628;28;20040;-63
2022/01/20 04:11:11;;;;;;;16.50;8.65;;;1.10;99.90;;;;;;5053562;28;20048;-61
2022/01/20 04:13:39;;;;;;;18.00;8.82;;;1.10;99.90;;;;;;5053313;28;20044;-63
2022/01/20 04:16:24;;;;;;;15.38;8.70;;;1.10;99.90;;;;;;5052866;28;20044;-63
2022/01/20 04:18:56;;;;;;;20.27;9.30;;;1.10;99.90;;;;;;5053369;28;20045;-63
2022/01/20 04:21:28;;;;;;;16.67;8.27;;;1.00;99.90;;;;;;5053262;28;20590;-63
2022/01/20 04:23:57;;;;;;;19.08;9.35;;;1.00;99.90;;;;;;5071195;28;20052;-63
2022/01/20 04:26:26;;;;;;;18.55;8.70;;;0.90;99.90;;;;;;5054814;28;20039;-63
2022/01/20 04:28:56;;;;;;;22.10;9.27;;;0.90;99.90;;;;;;5057148;28;20127;-63
2022/01/20 04:31:29;;;;;;;19.98;9.38;;;0.80;99.90;;;;;;5056773;28;20052;-62
2022/01/20 04:33:57;;;;;;;16.50;7.90;;;0.80;99.90;;;;;;5057054;28;20064;-63
2022/01/20 04:36:26;;;;;;;19.48;8.07;;;0.80;99.90;;;;;;5056324;28;20048;-63
2022/01/20 04:38:55;;;;;;;19.02;8.73;;;0.80;99.90;;;;;;5057172;28;20094;-63
2022/01/20 04:41:23;;;;;;;16.30;7.93;;;0.80;99.90;;;;;;5056559;28;20068;-63
2022/01/20 04:43:50;;;;;;;17.30;8.38;;;0.80;99.90;;;;;;5064326;28;20048;-63
2022/01/20 04:46:44;;;;;;;21.40;8.70;;;0.80;99.90;;;;;;5048475;28;20090;-63
2022/01/20 04:59:33;;;;;;;16.98;8.70;;;0.80;99.90;;;;;;5056662;28;20040;-63
2022/01/20 05:02:00;;;;;;;;;;;0.80;99.90;;;;;;5057015;28;20041;-63
2022/01/20 05:04:46;;;;;;;20.15;9.82;;;0.80;99.90;;;;;;5074070;28;20304;-63
2022/01/20 05:07:36;;;;;;;20.02;9.05;;;0.80;99.90;;;;;;5060955;28;20102;-63
2022/01/20 05:10:08;;;;;;;16.42;8.52;;;0.80;99.90;;;;;;5056411;28;20128;-63
2022/01/20 05:13:01;;;;;;;16.83;8.65;;;0.90;99.90;;;;;;5056446;28;20097;-63
2022/01/20 05:15:23;;;;;;;20.42;9.30;;;0.90;99.90;;;;;;5049405;28;20148;-63
2022/01/20 05:17:53;;;;;;;15.10;8.70;;;0.90;99.90;;;;;;5036632;28;20052;-63
2022/01/20 05:20:20;;;;;;;18.75;9.27;;;1.00;99.90;;;;;;5036312;28;20049;-63
2022/01/20 05:22:47;;;;;;;21.50;9.70;;;1.00;99.90;;;;;;5054087;28;20493;-63
2022/01/20 05:25:18;;;;;;;18.05;8.48;;;1.00;99.90;;;;;;5048949;28;20094;-63
2022/01/20 05:27:45;;;;;;;21.67;9.75;;;1.00;99.90;;;;;;5055618;28;20131;-63
2022/01/20 05:30:13;;;;;;;20.73;9.43;;;1.00;99.90;;;;;;5055995;28;20041;-63
2022/01/20 05:33:01;;;;;;;18.73;9.80;;;0.90;99.90;;;;;;5073687;28;20150;-63
2022/01/20 05:35:29;;;;;;;19.27;9.60;;;1.00;99.90;;;;;;5055266;28;20580;-63
2022/01/20 05:37:56;;;;;;;;;;;1.00;99.90;;;;;;5055619;28;20052;-63
2022/01/20 05:40:24;;;;;;;28.33;13.02;;;0.90;99.90;;;;;;5055848;28;19924;-63
2022/01/20 05:42:52;;;;;;;31.17;13.10;;;0.90;99.90;;;;;;5054355;28;20041;-63
2022/01/20 05:45:20;;;;;;;27.50;12.63;;;1.00;99.90;;;;;;5055107;28;20485;-63
2022/01/20 05:47:49;;;;;;;27.08;11.15;;;1.00;99.90;;;;;;5055441;28;20041;-63
2022/01/20 05:50:20;;;;;;;21.92;10.57;;;1.00;99.90;;;;;;5073898;28;20044;-63
2022/01/20 05:52:48;;;;;;;23.73;12.25;;;1.10;99.90;;;;;;5055394;28;20090;-63
2022/01/20 05:55:18;;;;;;;29.23;12.77;;;1.10;99.90;;;;;;5071823;28;20032;-62
2022/01/20 05:57:46;;;;;;;24.42;11.52;;;1.10;99.90;;;;;;5055451;28;20467;-63
2022/01/20 06:00:20;;;;;;;27.10;11.95;;;1.10;99.90;;;;;;5055539;28;20044;-62
2022/01/20 06:05:39;;;;;;;27.85;12.25;;;1.10;99.90;;;;;;5054856;28;20045;-63
2022/01/20 06:08:08;;;;;;;23.98;11.95;;;1.10;99.90;;;;;;5055178;28;20412;-63
2022/01/20 06:10:36;;;;;;;30.33;13.50;;;1.10;99.90;;;;;;5072901;28;20037;-63
2022/01/20 06:13:25;;;;;;;29.10;13.13;;;1.00;99.90;;;;;;5051987;28;20053;-62
2022/01/20 06:15:52;;;;;;;27.60;13.25;;;1.00;99.90;;;;;;5034856;28;20045;-63
2022/01/20 06:18:19;;;;;;;24.52;11.70;;;1.00;99.90;;;;;;5035273;28;20048;-62
2022/01/20 06:20:57;;;;;;;16.50;7.53;;;1.00;99.90;;;;;;5053689;28;20497;-63
2022/01/20 06:23:25;;;;;;;25.48;11.68;;;1.10;99.90;;;;;;5054505;28;20386;-63
2022/01/20 06:25:53;;;;;;;33.17;15.73;;;1.10;99.90;;;;;;5070203;28;20044;-61
2022/01/20 06:28:21;;;;;;;37.60;15.93;;;1.10;99.90;;;;;;5053376;28;20449;-63
2022/01/20 06:30:49;;;;;;;33.03;14.90;;;1.00;99.90;;;;;;5054250;28;20051;-63
2022/01/20 06:33:16;;;;;;;;;;;1.00;99.90;;;;;;5073065;28;20078;-61
2022/01/20 06:35:56;;;;;;;28.10;11.47;;;0.90;99.90;;;;;;5054343;28;20365;-63
2022/01/20 06:38:25;;;;;;;28.98;14.65;;;1.00;99.90;;;;;;5054782;28;20530;-63
2022/01/20 06:40:54;;;;;;;25.25;13.73;;;1.00;99.90;;;;;;5054572;28;20083;-63
2022/01/20 06:43:21;;;;;;;29.23;15.52;;;1.00;99.90;;;;;;5054007;28;20043;-62
2022/01/20 06:45:49;;;;;;;34.90;16.02;;;1.10;99.90;;;;;;5070523;28;20068;-63
2022/01/20 06:48:24;;;;;;;31.80;13.40;;;1.00;99.90;;;;;;5054597;28;20090;-63
2022/01/20 06:51:18;;;;;;;24.83;10.88;;;1.00;99.90;;;;;;5062047;28;20115;-63
2022/01/20 06:53:45;;;;;;;26.73;11.90;;;0.90;99.90;;;;;;5054473;28;20525;-62
2022/01/20 06:56:14;;;;;;;24.42;11.40;;;0.90;99.90;;;;;;5070277;28;20052;-63
2022/01/20 06:59:01;;;;;;;32.85;13.68;;;0.90;99.90;;;;;;5071111;28;20044;-62
2022/01/20 07:01:28;;;;;;;;;;;0.90;99.90;;;;;;5054707;28;20143;-63
2022/01/20 07:03:57;;;;;;;57.70;18.70;;;0.80;99.90;;;;;;5054265;28;19925;-63
2022/01/20 07:06:24;;;;;;;30.67;14.68;;;0.80;99.90;;;;;;5053658;28;20052;-63
2022/01/20 07:09:15;;;;;;;28.88;13.93;;;0.90;99.90;;;;;;5072449;28;20073;-62
2022/01/20 07:11:43;;;;;;;27.35;14.15;;;0.90;99.90;;;;;;5070741;28;20049;-63
2022/01/20 07:14:10;;;;;;;35.08;13.68;;;0.90;99.90;;;;;;5053982;28;20044;-63
2022/01/20 07:16:37;;;;;;;41.03;16.33;;;1.00;99.90;;;;;;5053548;28;20079;-63
2022/01/20 07:19:04;;;;;;;;;;;1.00;99.90;;;;;;5071102;28;20072;-63
2022/01/20 07:21:31;;;;;;;25.70;11.50;;;1.00;99.90;;;;;;5053882;28;19921;-62
2022/01/20 07:24:01;;;;;;;41.35;16.60;;;1.00;99.90;;;;;;5053917;28;20405;-62
2022/01/20 07:26:28;;;;;;;31.17;14.25;;;1.00;99.90;;;;;;5052952;28;20500;-62
2022/01/20 07:29:05;;;;;;;23.65;11.52;;;1.10;99.90;;;;;;5069893;28;20163;-62
2022/01/20 07:31:33;;;;;;;27.95;13.57;;;1.10;99.90;;;;;;5053387;28;20385;-62
2022/01/20 07:34:01;;;;;;;33.13;13.98;;;1.20;99.90;;;;;;5051988;28;20087;-62
2022/01/20 07:36:28;;;;;;;30.20;14.05;;;1.20;99.90;;;;;;5053199;28;20382;-62
2022/01/20 07:38:55;;;;;;;28.38;12.80;;;1.20;99.90;;;;;;5053095;28;20044;-63
2022/01/20 07:41:22;;;;;;;29.17;13.25;;;1.20;99.90;;;;;;5053929;28;20047;-62
2022/01/20 07:43:48;;;;;;;27.13;13.55;;;1.20;99.90;;;;;;5070343;28;20041;-63
2022/01/20 07:46:38;;;;;;;31.55;14.48;;;1.20;99.90;;;;;;5070482;28;20056;-63
2022/01/20 07:49:10;;;;;;;23.52;12.75;;;1.20;99.90;;;;;;5070338;28;20047;-62
2022/01/20 07:51:39;;;;;;;23.77;12.75;;;1.20;99.90;;;;;;5053604;28;20044;-62
2022/01/20 07:54:08;;;;;;;26.83;12.77;;;1.20;99.90;;;;;;5071469;28;20041;-63
2022/01/20 07:56:40;;;;;;;24.63;12.63;;;1.20;99.90;;;;;;5052890;28;20045;-62
2022/01/20 07:59:08;;;;;;;29.95;13.18;;;1.30;99.90;;;;;;5070048;28;20049;-63
2022/01/20 08:01:40;;;;;;;26.98;13.57;;;1.30;99.90;;;;;;5053091;28;20140;-63
2022/01/20 08:04:08;;;;;;;32.50;13.75;;;1.30;99.90;;;;;;5070146;28;20102;-63
2022/01/20 08:06:37;;;;;;;30.08;14.32;;;1.30;99.90;;;;;;5052896;28;20448;-63
2022/01/20 08:09:10;;;;;;;27.70;13.52;;;1.40;99.90;;;;;;5053378;28;20036;-62
2022/01/20 08:11:44;;;;;;;26.17;12.32;;;1.40;99.90;;;;;;5053485;28;20045;-63
2022/01/20 08:14:29;;;;;;;22.30;12.05;;;1.40;99.90;;;;;;5070118;28;20051;-63
2022/01/20 08:16:55;;;;;;;;;;;1.40;99.90;;;;;;5071325;28;20040;-63
2022/01/20 08:19:23;;;;;;;29.08;13.50;;;1.40;99.90;;;;;;5053246;28;19924;-62
2022/01/20 08:21:52;;;;;;;38.88;17.10;;;1.50;99.90;;;;;;5053317;28;20078;-60
2022/01/20 08:24:19;;;;;;;26.73;14.30;;;1.50;99.90;;;;;;5070182;28;20055;-62
2022/01/20 08:26:46;;;;;;;26.48;13.35;;;1.50;99.90;;;;;;5052727;28;20106;-62
2022/01/20 08:29:14;;;;;;;31.27;15.10;;;1.50;99.90;;;;;;5069748;28;20045;-62
2022/01/20 08:31:41;;;;;;;20.67;9.25;;;1.50;99.90;;;;;;5071227;28;20045;-62
2022/01/20 08:34:26;;;;;;;27.92;14.07;;;1.50;99.90;;;;;;5071325;28;20074;-63
2022/01/20 08:37:12;;;;;;;34.10;16.33;;;1.40;99.90;;;;;;5070708;28;20055;-62
2022/01/20 08:39:45;;;;;;;44.88;18.02;;;1.30;99.90;;;;;;5053091;28;20136;-62
2022/01/20 08:42:13;;;;;;;33.22;15.68;;;1.30;99.90;;;;;;5053218;28;20048;-62
2022/01/20 08:44:40;;;;;;;32.63;14.93;;;1.30;99.90;;;;;;5053157;28;20143;-62
2022/01/20 08:47:14;;;;;;;36.08;15.15;;;1.30;99.90;;;;;;5052743;28;20052;-63
2022/01/20 08:49:46;;;;;;;37.83;16.30;;;1.30;99.90;;;;;;5052965;28;20040;-62
2022/01/20 08:52:15;;;;;;;33.33;16.55;;;1.30;99.90;;;;;;5052988;28;20127;-62
2022/01/20 08:54:47;;;;;;;30.48;15.60;;;1.30;99.90;;;;;;5069555;28;20109;-63
2022/01/20 08:57:28;;;;;;;39.45;17.60;;;1.30;99.90;;;;;;5088418;28;20120;-62
2022/01/20 08:59:56;;;;;;;;;;;1.30;99.90;;;;;;5091534;28;20032;-62
2022/01/20 09:02:23;;;;;;;32.70;15.07;;;1.30;99.90;;;;;;5089784;28;20001;-62
2022/01/20 09:04:50;;;;;;;34.35;15.48;;;1.30;99.90;;;;;;5089659;28;20066;-62
2022/01/20 09:07:33;;;;;;;34.92;16.02;;;1.30;99.90;;;;;;5069402;28;20091;-62
2022/01/20 09:10:03;;;;;;;;;;;1.30;99.90;;;;;;5069996;28;20037;-62
2022/01/20 09:15:27;;;;;;;34.92;14.65;;;1.30;99.90;;;;;;5072904;28;20048;-62
2022/01/20 09:18:07;;;;;;;32.28;15.05;;;1.30;99.90;;;;;;5089785;28;20474;-64
2022/01/20 09:20:38;;;;;;;31.83;16.30;;;1.30;99.90;;;;;;5072943;28;20566;-62
2022/01/20 09:23:06;;;;;;;34.40;15.75;;;1.30;99.90;;;;;;5072832;28;20041;-62
2022/01/20 09:25:34;;;;;;;31.90;15.57;;;1.30;99.90;;;;;;5072338;28;20058;-62
2022/01/20 09:28:01;;;;;;;;;;;1.30;99.90;;;;;;5073103;28;20048;-62
2022/01/20 09:30:29;;;;;;;31.80;14.98;;;1.20;99.90;;;;;;5073876;28;20160;-62
2022/01/20 09:33:26;;;;;;;35.35;16.00;;;1.20;99.90;;;;;;5089534;28;20041;-63
2022/01/20 09:35:45;;;;;;;37.92;17.08;;;1.20;99.90;;;;;;5072119;28;20090;-62
2022/01/20 09:38:14;;;;;;;34.58;15.80;;;1.10;99.90;;;;;;5072615;28;20102;-62
2022/01/20 09:40:42;;;;;;;39.42;16.33;;;1.20;99.90;;;;;;5072463;28;20053;-62
2022/01/20 09:43:14;;;;;;;35.30;15.32;;;1.20;99.90;;;;;;5089345;28;20589;-62
2022/01/20 09:45:42;;;;;;;40.72;16.80;;;1.30;99.90;;;;;;5072068;28;20056;-62
2022/01/20 09:48:11;;;;;;;33.42;16.15;;;1.30;99.90;;;;;;5072448;28;20044;-62
2022/01/20 09:51:03;;;;;;;32.22;15.40;;;1.30;99.90;;;;;;5072462;28;20413;-64
2022/01/20 09:53:42;;;;;;;32.75;16.42;;;1.30;99.90;;;;;;5072282;28;20504;-62
2022/01/20 09:56:47;;;;;;;36.28;16.23;;;1.30;99.90;;;;;;5076666;28;20043;-62
2022/01/20 09:59:17;;;;;;;37.40;18.33;;;1.30;99.90;;;;;;5075539;28;20614;-62
2022/01/20 10:01:47;;;;;;;37.83;18.52;;;1.30;99.90;;;;;;5075406;28;20051;-62
2022/01/20 10:04:34;;;;;;;38.45;20.10;;;1.40;99.90;;;;;;5075495;28;20093;-62
2022/01/20 10:07:32;;;;;;;39.63;20.20;;;1.40;99.90;;;;;;5092824;28;20052;-62
2022/01/20 10:10:04;;;;;;;34.65;17.63;;;1.40;99.90;;;;;;5075282;28;20089;-62
2022/01/20 10:12:49;;;;;;;34.50;17.25;;;1.50;99.90;;;;;;5093870;28;20051;-62
2022/01/20 10:15:37;;;;;;;34.85;18.25;;;1.50;99.90;;;;;;5092900;28;20035;-62
2022/01/20 10:18:22;;;;;;;33.88;18.23;;;1.60;99.90;;;;;;5075095;28;20090;-63
2022/01/20 10:21:02;;;;;;;43.38;20.67;;;1.70;99.90;;;;;;5075165;28;20407;-62
2022/01/20 10:23:48;;;;;;;38.03;19.88;;;1.80;99.90;;;;;;5074809;28;20531;-62
2022/01/20 10:26:29;;;;;;;34.28;19.92;;;1.90;99.90;;;;;;5074513;28;20047;-64
2022/01/20 10:29:05;;;;;;;40.35;19.98;;;2.00;99.90;;;;;;5074840;28;20040;-62
2022/01/20 10:31:51;;;;;;;34.10;17.52;;;2.00;99.90;;;;;;5075085;28;20044;-63
2022/01/20 10:34:31;;;;;;;26.48;13.50;;;1.90;99.90;;;;;;5074971;28;20044;-62
2022/01/20 10:37:13;;;;;;;33.70;16.30;;;1.80;99.90;;;;;;5074205;28;20058;-62
2022/01/20 10:39:49;;;;;;;34.22;18.67;;;1.70;99.90;;;;;;5074680;28;20067;-62
2022/01/20 10:42:21;;;;;;;40.70;20.45;;;1.70;99.90;;;;;;5074806;28;20036;-62
2022/01/20 10:44:48;;;;;;;55.97;25.77;;;1.70;99.90;;;;;;5074630;28;20040;-62
2022/01/20 10:47:29;;;;;;;56.53;25.30;;;1.70;99.90;;;;;;5074395;28;20534;-64
2022/01/20 10:50:12;;;;;;;48.25;22.90;;;1.70;99.90;;;;;;5074508;28;20135;-64
2022/01/20 10:52:44;;;;;;;38.92;19.75;;;1.60;99.90;;;;;;5074427;28;20074;-64
2022/01/20 10:55:20;;;;;;;40.22;19.38;;;1.80;99.90;;;;;;5073872;28;20051;-64
2022/01/20 10:57:50;;;;;;;44.72;20.27;;;1.80;99.90;;;;;;5074596;28;20135;-64
2022/01/20 11:00:19;;;;;;;52.10;21.58;;;1.80;99.90;;;;;;5074160;28;20040;-64
2022/01/20 11:02:50;;;;;;;50.55;22.77;;;1.70;99.90;;;;;;5074190;28;20051;-64
2022/01/20 11:05:18;;;;;;;49.03;21.50;;;1.70;99.90;;;;;;5073700;28;20400;-64
2022/01/20 11:07:45;;;;;;;45.50;20.95;;;1.60;99.90;;;;;;5074167;28;20127;-64
2022/01/20 11:10:13;;;;;;;44.00;23.38;;;1.50;99.90;;;;;;5074415;28;20039;-64
2022/01/20 11:12:46;;;;;;;50.45;20.92;;;1.50;99.90;;;;;;5092230;28;20052;-64
2022/01/20 11:15:20;;;;;;;42.60;19.65;;;1.60;99.90;;;;;;5073727;28;20097;-64
2022/01/20 11:17:55;;;;;;;42.00;19.63;;;1.50;99.90;;;;;;5074099;28;20093;-64
2022/01/20 11:20:28;;;;;;;41.83;19.55;;;1.60;99.90;;;;;;5073951;28;20123;-64
2022/01/20 11:23:00;;;;;;;37.60;16.63;;;1.70;99.90;;;;;;5073891;28;20064;-64
2022/01/20 11:25:36;;;;;;;41.97;18.42;;;1.70;99.90;;;;;;5073397;28;20435;-64
2022/01/20 11:28:21;;;;;;;29.42;15.35;;;1.80;99.90;;;;;;5073849;28;20054;-64
2022/01/20 11:31:09;;;;;;;36.33;15.43;;;2.00;99.90;;;;;;5091427;28;20052;-64
2022/01/20 11:33:45;;;;;;;33.42;11.98;;;2.10;99.90;;;;;;5073906;28;20040;-64
2022/01/20 11:36:24;;;;;;;21.25;9.70;;;2.20;99.90;;;;;;5090786;28;20078;-64
2022/01/20 11:39:11;;;;;;;;;;;2.30;99.90;;;;;;5092724;28;20075;-64
2022/01/20 11:41:43;;;;;;;33.10;12.25;;;2.40;99.90;;;;;;5091772;28;20003;-64
2022/01/20 11:44:16;;;;;;;16.55;9.05;;;2.40;99.90;;;;;;5091763;28;20052;-64
2022/01/20 11:46:45;;;;;;;17.88;9.10;;;2.40;99.90;;;;;;5091318;28;20043;-64
2022/01/20 11:49:15;;;;;;;14.50;8.13;;;2.40;99.90;;;;;;5091624;28;20481;-64
2022/01/20 11:51:58;;;;;;;15.77;8.63;;;2.40;99.90;;;;;;5091717;28;20039;-64
2022/01/20 11:54:29;;;;;;;9.50;5.47;;;2.50;99.90;;;;;;5091680;28;20512;-64
2022/01/20 11:57:09;;;;;;;13.98;6.82;;;2.50;99.90;;;;;;5091139;28;20559;-64
2022/01/20 11:59:38;;;;;;;8.20;4.40;;;2.50;99.90;;;;;;5091613;28;20048;-64
2022/01/20 12:02:05;;;;;;;13.65;4.72;;;2.40;99.90;;;;;;5091525;28;20079;-64
2022/01/20 12:04:35;;;;;;;8.80;3.92;;;2.40;99.90;;;;;;5073546;28;20051;-64
2022/01/20 12:07:05;;;;;;;11.82;5.95;;;2.50;99.90;;;;;;5073129;28;20427;-64
2022/01/20 12:09:38;;;;;;;8.57;3.17;;;2.60;99.90;;;;;;5091493;28;20036;-64
2022/01/20 12:12:23;;;;;;;11.05;3.78;;;2.60;99.90;;;;;;5091521;28;20037;-64
2022/01/20 12:14:50;;;;;;;7.38;3.08;;;2.70;99.90;;;;;;5091548;28;20036;-64
2022/01/20 12:17:17;;;;;;;4.70;2.63;;;2.60;99.90;;;;;;5090875;28;20127;-65
2022/01/20 12:19:54;;;;;;;7.43;2.90;;;2.70;99.90;;;;;;5091524;28;20550;-65
2022/01/20 12:22:21;;;;;;;7.57;3.33;;;2.70;99.90;;;;;;5091551;28;20083;-65
2022/01/20 12:24:57;;;;;;;5.32;2.65;;;2.80;99.90;;;;;;5091329;28;20044;-63
2022/01/20 12:27:25;;;;;;;8.00;4.82;;;2.80;99.90;;;;;;5090950;28;20135;-64
2022/01/20 12:29:53;;;;;;;5.88;3.15;;;2.80;99.90;;;;;;5091263;28;20050;-64
2022/01/20 12:32:20;;;;;;;16.00;3.65;;;2.80;99.90;;;;;;5091772;28;20040;-64
2022/01/20 12:35:05;;;;;;;7.47;3.03;;;2.80;99.90;;;;;;5091290;28;20051;-65
2022/01/20 12:37:36;;;;;;;4.38;2.65;;;2.80;99.90;;;;;;5091138;28;20496;-63
2022/01/20 12:40:16;;;;;;;4.68;1.38;;;3.00;99.90;;;;;;5091365;28;20040;-65
2022/01/20 12:42:43;;;;;;;3.58;2.78;;;3.10;99.90;;;;;;5091506;28;20048;-64
2022/01/20 12:48:17;;;;;;;15.77;8.75;;;3.50;99.90;;;;;;5094561;28;20078;-65
2022/01/20 12:50:56;;;;;;;15.57;7.15;;;3.60;99.90;;;;;;5095150;28;20131;-65
2022/01/20 12:53:37;;;;;;;13.35;6.78;;;3.40;99.90;;;;;;5095127;28;20073;-65
2022/01/20 12:56:13;;;;;;;8.88;5.65;;;3.40;99.90;;;;;;5094303;28;20068;-65
2022/01/20 12:58:58;;;;;;;11.23;5.93;;;3.40;99.90;;;;;;5094906;28;20052;-65
2022/01/20 13:01:36;;;;;;;10.85;5.60;;;3.30;99.90;;;;;;5095106;28;20071;-65
2022/01/20 13:04:03;;;;;;;10.43;5.50;;;3.20;99.90;;;;;;5094806;28;20070;-65
2022/01/20 13:06:32;;;;;;;10.93;5.95;;;3.10;99.90;;;;;;5094624;28;20044;-65
2022/01/20 13:09:08;;;;;;;14.55;6.07;;;3.10;99.90;;;;;;5094624;28;20040;-65
2022/01/20 13:11:43;;;;;;;12.98;7.40;;;3.10;99.90;;;;;;5094844;28;20068;-65
2022/01/20 13:14:12;;;;;;;11.40;6.90;;;3.10;99.90;;;;;;5094621;28;20055;-65
2022/01/20 13:16:52;;;;;;;19.50;8.77;;;3.10;99.90;;;;;;5094032;28;20047;-65
2022/01/20 13:19:30;;;;;;;13.98;5.85;;;3.00;99.90;;;;;;5094474;28;20040;-65
2022/01/20 13:21:57;;;;;;;;;;;2.90;99.90;;;;;;5094758;28;20369;-65
2022/01/20 13:24:26;;;;;;;6.28;3.63;;;2.80;99.90;;;;;;5094413;28;19927;-65
2022/01/20 13:26:55;;;;;;;11.70;4.85;;;2.80;99.90;;;;;;5093767;28;20140;-64
2022/01/20 13:29:24;;;;;;;8.85;4.78;;;2.90;99.90;;;;;;5094204;28;20040;-65
2022/01/20 13:31:55;;;;;;;13.02;6.60;;;3.00;99.90;;;;;;5094372;28;20072;-65
2022/01/20 13:34:22;;;;;;;10.18;6.10;;;3.00;99.90;;;;;;5094216;28;20051;-65
2022/01/20 13:36:55;;;;;;;10.90;6.45;;;3.10;99.90;;;;;;5093575;28;20428;-65
2022/01/20 13:39:28;;;;;;;9.02;4.80;;;3.00;99.90;;;;;;5094109;28;20504;-65
2022/01/20 13:42:07;;;;;;;10.38;4.60;;;3.10;99.90;;;;;;5094390;28;20396;-65
2022/01/20 13:47:19;;;;;;;12.32;6.90;;;3.00;99.90;;;;;;5093562;28;20048;-65
2022/01/20 13:49:48;;;;;;;10.95;5.55;;;3.00;99.90;;;;;;5093872;28;20069;-64
2022/01/20 13:52:18;;;;;;;15.10;6.53;;;2.70;99.90;;;;;;5093910;28;20123;-65
2022/01/20 13:54:53;;;;;;;15.85;7.63;;;2.70;99.90;;;;;;5093789;28;20105;-65
2022/01/20 13:57:38;;;;;;;8.90;4.88;;;2.80;99.90;;;;;;5093541;28;20503;-63
2022/01/20 14:00:10;;;;;;;14.00;6.80;;;2.90;99.90;;;;;;5093350;28;20478;-64
2022/01/20 14:02:41;;;;;;;19.02;8.38;;;2.90;99.90;;;;;;5093634;28;20127;-64
2022/01/20 14:05:08;;;;;;;15.63;7.07;;;2.80;99.90;;;;;;5093292;28;20100;-65
2022/01/20 14:07:35;;;;;;;19.23;8.55;;;2.80;99.90;;;;;;5093208;28;20076;-63
2022/01/20 14:10:03;;;;;;;17.92;8.90;;;2.90;99.90;;;;;;5093496;28;20036;-65
2022/01/20 14:12:30;;;;;;;25.33;10.43;;;3.00;99.90;;;;;;5093421;28;20101;-65
2022/01/20 14:14:57;;;;;;;20.42;9.68;;;3.00;99.90;;;;;;5093321;28;20039;-65
2022/01/20 14:17:24;;;;;;;12.27;5.85;;;3.20;99.90;;;;;;5093030;28;20408;-65
2022/01/20 14:19:54;;;;;;;10.90;5.50;;;3.10;99.90;;;;;;5093477;28;20048;-65
2022/01/20 14:22:22;;;;;;;13.27;6.03;;;3.10;99.90;;;;;;5090252;28;20110;-65
2022/01/20 14:24:49;;;;;;;8.77;3.95;;;3.00;99.90;;;;;;5083163;28;20570;-65
2022/01/20 14:27:18;;;;;;;5.38;2.63;;;3.00;99.90;;;;;;5072332;28;20044;-65
2022/01/20 14:29:47;;;;;;;8.85;4.45;;;3.10;99.90;;;;;;5072809;28;20530;-65